Overview Statistics Trail Chart Weather Telemetry Raw packets
 

This is the latest recevied weather packets stored in our database for station/object KD4PMP. If no packets are shown the sender has not sent any weather packets the latest 10 day(s).

<< 15 16 17 18 19 20 21 >>
Time Temp. Humidity Pressure Rain* Wind** Luminosity Snow
1788385569 38.89° C 44% 1014.4 hPa 0 mm - - -
1788384963 38.33° C 45% 1014.6 hPa 0 mm - - -
1788384356 37.78° C 46% 1014.6 hPa 0 mm - - -
1788383750 38.33° C 44% 1014.6 hPa 0 mm - - -
1788383143 38.33° C 45% 1014.5 hPa 0 mm - - -
1788382537 38.33° C 45% 1014.5 hPa 0 mm - - -
1788381929 38.33° C 44% 1014.7 hPa 0 mm - - -
1788381322 37.78° C 45% 1014.8 hPa 0 mm - - -
1788380716 37.22° C 45% 1014.9 hPa 0 mm - - -
1788380110 37.78° C 43% 1015.1 hPa 0 mm - - -
1788379504 37.78° C 45% 1015.2 hPa 0 mm - - -
1788378898 38.33° C 44% 1015.4 hPa 0 mm - - -
1788378291 38.33° C 44% 1015.4 hPa 0 mm - - -
1788377685 37.78° C 45% 1015.6 hPa 0 mm - - -
1788377079 37.22° C 47% 1015.6 hPa 0 mm - - -
1788376471 36.67° C 47% 1015.8 hPa 0 mm - - -
1788375864 36.67° C 49% 1016 hPa 0 mm - - -
1788375258 36.67° C 48% 1016.2 hPa 0 mm - - -
1788374652 36.11° C 51% 1016.1 hPa 0 mm - - -
1788374057 35° C 52% 1016.2 hPa 0 mm - - -
1788373439 34.44° C 53% 1016.3 hPa 0 mm - - -
1788372833 34.44° C 54% 1016.4 hPa 0 mm - - -
1788372226 34.44° C 55% 1016.5 hPa 0 mm - - -
1788371620 35° C 55% 1016.7 hPa 0 mm - - -
1788371013 35° C 54% 1016.9 hPa 0 mm - - -

* Rain latest hour (hover to see other rain measurements)
** Current wind speed in m/s (hover to see current wind gust speed)